Time;durP1;ratioP1;P1;durP2;ratioP2;P2;SDS_P1;SDS_P2;PMS_P1;PMS_P2;Temp;Humidity;BMP_temperature;BMP_pressure;BME280_temperature;BME280_humidity;BME280_pressure;Samples;Min_cycle;Max_cycle;Signal;HPM_P1;HPM_P2
2023/09/15 00:00:28;;;;;;;;;11.67;10.33;;;;;20.87;100.00;101488.84;5076197;27;45345;-73
2023/09/15 00:02:55;;;;;;;;;10.33;8.00;;;;;20.83;100.00;101473.75;5074385;27;46484;-73
2023/09/15 00:05:20;;;;;;;;;11.00;11.00;;;;;20.81;100.00;101483.63;5078245;27;45290;-74
2023/09/15 00:07:46;;;;;;;;;12.00;10.00;;;;;20.76;100.00;101488.19;5077897;28;45234;-75
2023/09/15 00:10:11;;;;;;;;;13.33;10.33;;;;;20.70;100.00;101480.28;5073974;27;45390;-72
2023/09/15 00:12:38;;;;;;;;;14.00;10.00;;;;;20.66;100.00;101476.75;5075245;28;45794;-73
2023/09/15 00:15:07;;;;;;;;;8.33;7.33;;;;;20.61;100.00;101477.75;5077688;28;45402;-73
2023/09/15 00:17:42;;;;;;;;;12.00;11.00;;;;;20.60;100.00;101481.38;5074212;28;45246;-73
2023/09/15 00:20:20;;;;;;;;;8.33;8.33;;;;;20.55;100.00;101483.25;5071045;28;45519;-73
2023/09/15 00:22:49;;;;;;;;;8.67;8.33;;;;;20.51;100.00;101489.63;5073527;28;46602;-73
2023/09/15 00:25:28;;;;;;;;;11.00;9.00;;;;;20.52;100.00;101494.06;5077263;28;45488;-73
2023/09/15 00:27:56;;;;;;;;;14.33;8.33;;;;;20.47;100.00;101487.91;5077078;28;45456;-73
2023/09/15 00:30:23;;;;;;;;;8.33;7.33;;;;;20.45;100.00;101487.88;5077447;27;45476;-73
2023/09/15 00:32:48;;;;;;;;;9.67;7.67;;;;;20.43;100.00;101481.69;5069712;28;47491;-73
2023/09/15 00:35:16;;;;;;;;;9.33;9.33;;;;;20.40;100.00;101481.75;5076236;28;45287;-72
2023/09/15 00:37:42;;;;;;;;;12.00;10.00;;;;;20.38;100.00;101471.03;5069330;28;45282;-73
2023/09/15 00:40:09;;;;;;;;;11.67;9.33;;;;;20.38;100.00;101476.41;5069009;28;45338;-73
2023/09/15 00:42:34;;;;;;;;;11.67;9.67;;;;;20.37;100.00;101469.25;5077917;28;46307;-72
2023/09/15 00:45:04;;;;;;;;;10.00;8.33;;;;;20.37;100.00;101469.25;5076588;28;45398;-73
2023/09/15 00:47:31;;;;;;;;;9.00;8.00;;;;;20.35;100.00;101465.75;5074546;27;45414;-73
2023/09/15 00:49:57;;;;;;;;;11.00;8.67;;;;;20.32;100.00;101462.22;5073226;28;45410;-74
2023/09/15 00:52:22;;;;;;;;;9.33;9.33;;;;;20.28;100.00;101463.19;5075513;28;47272;-72
2023/09/15 00:54:48;;;;;;;;;9.00;8.00;;;;;20.28;100.00;101471.22;5074778;28;67455;-72
2023/09/15 00:57:13;;;;;;;;;12.33;10.00;;;;;20.28;100.00;101464.06;5077332;28;45268;-72
2023/09/15 00:59:38;;;;;;;;;10.00;8.33;;;;;20.27;100.00;101469.47;5075220;27;45414;-73
2023/09/15 01:02:04;;;;;;;;;9.33;9.33;;;;;20.30;100.00;101473.00;5072006;28;70312;-73
2023/09/15 01:04:31;;;;;;;;;8.00;8.00;;;;;20.30;100.00;101469.44;5077083;28;45267;-73
2023/09/15 01:06:57;;;;;;;;;12.67;10.00;;;;;20.26;100.00;101465.03;5080279;27;45548;-73
2023/09/15 01:09:23;;;;;;;;;11.00;11.00;;;;;20.24;100.00;101458.78;5077483;27;45381;-73
2023/09/15 01:11:50;;;;;;;;;8.67;8.67;;;;;20.21;100.00;101465.09;5066674;27;45457;-73
2023/09/15 01:14:16;;;;;;;;;9.33;9.00;;;;;20.21;100.00;101459.75;5071031;28;45676;-73
2023/09/15 01:16:59;;;;;;;;;8.67;8.67;;;;;20.23;100.00;101457.03;5071380;28;45527;-72
2023/09/15 01:19:44;;;;;;;;;10.33;9.00;;;;;20.21;100.00;101454.38;5066373;27;45505;-73
2023/09/15 01:22:47;;;;;;;;;9.33;9.00;;;;;20.19;100.00;101453.53;5064551;28;46724;-74
2023/09/15 01:25:30;;;;;;;;;8.00;8.00;;;;;20.16;100.00;101461.63;5069470;28;45325;-72
2023/09/15 01:28:26;;;;;;;;;8.67;8.67;;;;;20.14;100.00;101458.09;5066385;28;45529;-73
2023/09/15 01:30:52;;;;;;;;;9.00;9.00;;;;;20.13;100.00;101459.91;5072441;28;45319;-73
2023/09/15 01:33:18;;;;;;;;;8.00;8.00;;;;;20.13;100.00;101459.00;5068828;28;46246;-73
2023/09/15 01:35:43;;;;;;;;;9.33;8.33;;;;;20.13;100.00;101456.31;5072966;28;45469;-73
2023/09/15 01:38:09;;;;;;;;;10.00;10.00;;;;;20.10;100.00;101449.22;5068955;28;45239;-73
2023/09/15 01:40:34;;;;;;;;;10.00;10.00;;;;;20.15;100.00;101446.47;5073005;28;61766;-73
2023/09/15 01:42:59;;;;;;;;;8.67;8.00;;;;;20.19;100.00;101444.59;5070468;27;46330;-74
2023/09/15 01:45:25;;;;;;;;;9.33;8.00;;;;;20.13;100.00;101441.13;5076572;28;62400;-73
2023/09/15 01:47:50;;;;;;;;;10.67;8.67;;;;;20.12;100.00;101446.50;5075127;27;52217;-73
2023/09/15 01:50:16;;;;;;;;;9.00;9.00;;;;;20.07;100.00;101440.34;5069306;28;59836;-73
2023/09/15 01:52:42;;;;;;;;;8.00;8.00;;;;;20.04;100.00;101443.09;5069210;28;69986;-73
2023/09/15 01:55:09;;;;;;;;;7.67;6.33;;;;;20.01;100.00;101446.69;5070688;28;45266;-72
2023/09/15 01:57:34;;;;;;;;;8.67;8.33;;;;;20.02;100.00;101444.91;5076947;27;45292;-74
2023/09/15 01:59:59;;;;;;;;;8.00;8.00;;;;;20.05;100.00;101444.84;5071391;28;66715;-73
2023/09/15 02:02:25;;;;;;;;;8.00;8.00;;;;;20.05;100.00;101443.06;5071199;28;72205;-72
2023/09/15 02:04:50;;;;;;;;;7.33;7.33;;;;;20.04;100.00;101438.63;5076406;28;45379;-73
2023/09/15 02:07:16;;;;;;;;;11.67;9.33;;;;;20.03;100.00;101439.53;5069388;27;63151;-72
2023/09/15 02:09:41;;;;;;;;;8.00;8.00;;;;;20.02;100.00;101442.22;5076588;27;45309;-73
2023/09/15 02:12:07;;;;;;;;;9.00;8.00;;;;;20.03;100.00;101441.34;5074830;27;46337;-72
2023/09/15 02:14:34;;;;;;;;;12.00;9.67;;;;;20.01;100.00;101446.69;5065703;28;45392;-72
2023/09/15 02:17:00;;;;;;;;;7.00;7.00;;;;;19.99;100.00;101443.19;5072470;28;45527;-73
2023/09/15 02:19:25;;;;;;;;;10.00;8.00;;;;;19.97;100.00;101436.06;5074056;28;45368;-74
2023/09/15 02:21:51;;;;;;;;;8.00;8.00;;;;;19.97;100.00;101433.38;5074578;28;46527;-74
2023/09/15 02:24:16;;;;;;;;;10.67;10.67;;;;;19.98;100.00;101443.22;5066863;27;66090;-73
2023/09/15 02:26:41;;;;;;;;;8.33;8.00;;;;;19.93;100.00;101437.94;5067247;28;63596;-73
2023/09/15 02:29:07;;;;;;;;;8.67;8.67;;;;;19.98;100.00;101435.16;5075706;28;45350;-73
2023/09/15 02:31:32;;;;;;;;;7.67;7.67;;;;;19.97;100.00;101434.25;5073482;27;46541;-73
2023/09/15 02:34:00;;;;;;;;;10.00;10.00;;;;;20.05;100.00;101423.41;5070574;27;67439;-74
2023/09/15 02:36:26;;;;;;;;;9.00;9.00;;;;;19.97;100.00;101442.31;5075392;28;45397;-73
2023/09/15 02:38:54;;;;;;;;;8.00;8.00;;;;;19.95;100.00;101432.53;5073393;27;45445;-72
2023/09/15 02:41:20;;;;;;;;;10.00;10.00;;;;;19.94;100.00;101428.09;5079657;27;46679;-73
2023/09/15 02:43:46;;;;;;;;;8.33;8.33;;;;;19.88;100.00;101432.66;5078225;28;45349;-73
2023/09/15 02:46:11;;;;;;;;;9.33;9.33;;;;;19.87;100.00;101438.03;5079765;28;45427;-72
2023/09/15 02:48:36;;;;;;;;;8.00;6.67;;;;;19.84;100.00;101430.94;5071798;27;63382;-73
2023/09/15 02:51:03;;;;;;;;;7.67;6.67;;;;;19.80;100.00;101434.56;5078624;28;67582;-72
2023/09/15 02:53:29;;;;;;;;;7.00;7.00;;;;;19.81;100.00;101425.59;5073040;28;45200;-73
2023/09/15 02:55:59;;;;;;;;;9.00;9.00;;;;;19.82;100.00;101426.53;5077421;27;45404;-72
2023/09/15 02:58:25;;;;;;;;;12.33;9.00;;;;;19.83;100.00;101428.28;5079315;28;45428;-73
2023/09/15 03:00:50;;;;;;;;;11.00;9.33;;;;;19.82;100.00;101429.19;5073891;27;46370;-72
2023/09/15 03:03:15;;;;;;;;;8.00;8.00;;;;;19.80;100.00;101425.63;5073135;28;45489;-73
2023/09/15 03:05:41;;;;;;;;;9.00;9.00;;;;;19.85;100.00;101424.66;5074207;27;66295;-72
2023/09/15 03:08:06;;;;;;;;;9.00;8.67;;;;;19.84;100.00;101428.25;5077465;28;60062;-72
2023/09/15 03:10:34;;;;;;;;;8.33;8.33;;;;;19.85;100.00;101421.97;5078384;27;45756;-73
2023/09/15 03:12:59;;;;;;;;;9.00;9.00;;;;;19.82;100.00;101418.47;5077972;28;45431;-72
2023/09/15 03:15:24;;;;;;;;;10.00;10.00;;;;;19.81;100.00;101419.38;5073346;27;45399;-73
2023/09/15 03:17:50;;;;;;;;;9.33;8.67;;;;;19.76;100.00;101414.13;5077422;27;65580;-73
2023/09/15 03:20:19;;;;;;;;;9.00;9.00;;;;;19.77;100.00;101415.88;5074201;28;65737;-73
2023/09/15 03:22:45;;;;;;;;;8.33;7.33;;;;;19.78;100.00;101414.97;5079335;27;45441;-76
2023/09/15 03:25:10;;;;;;;;;8.67;8.67;;;;;19.76;100.00;101416.78;5070438;27;45449;-73
2023/09/15 03:27:36;;;;;;;;;10.00;8.00;;;;;19.79;100.00;101410.47;5078881;28;45462;-73
2023/09/15 03:30:04;;;;;;;;;8.67;8.67;;;;;19.78;100.00;101419.44;5077449;27;46659;-72
2023/09/15 03:32:29;;;;;;;;;11.00;9.33;;;;;19.75;100.00;101411.44;5072117;28;45417;-75
2023/09/15 03:34:55;;;;;;;;;10.33;9.33;;;;;19.75;100.00;101406.09;5076335;28;61519;-72
2023/09/15 03:37:20;;;;;;;;;9.00;9.00;;;;;19.70;100.00;101411.50;5074065;27;59999;-72
2023/09/15 03:39:45;;;;;;;;;10.00;9.00;;;;;19.68;100.00;101408.00;5077123;28;47426;-73
2023/09/15 03:42:11;;;;;;;;;11.00;8.00;;;;;19.66;100.00;101400.91;5082936;27;69844;-73
2023/09/15 03:44:36;;;;;;;;;9.00;7.67;;;;;19.63;100.00;101399.16;5072370;28;45551;-72
2023/09/15 03:47:02;;;;;;;;;9.00;9.00;;;;;19.61;100.00;101400.97;5078126;27;63398;-72
2023/09/15 03:49:27;;;;;;;;;9.33;8.00;;;;;19.58;100.00;101403.66;5068575;27;46503;-72
2023/09/15 03:51:52;;;;;;;;;11.67;11.00;;;;;19.60;100.00;101401.88;5077517;27;68043;-72
2023/09/15 03:54:18;;;;;;;;;8.33;8.33;;;;;19.62;100.00;101395.59;5077477;28;65976;-75
2023/09/15 03:56:44;;;;;;;;;9.00;7.00;;;;;19.63;100.00;101386.63;5072690;27;45456;-75
2023/09/15 03:59:09;;;;;;;;;12.00;8.67;;;;;19.66;100.00;101391.06;5077304;28;73094;-74
2023/09/15 04:01:34;;;;;;;;;10.33;9.00;;;;;19.63;100.00;101388.44;5075193;27;67459;-74
2023/09/15 04:04:01;;;;;;;;;9.00;9.00;;;;;19.62;100.00;101381.31;5077688;27;56349;-73
2023/09/15 04:06:28;;;;;;;;;11.67;11.00;;;;;19.62;100.00;101384.88;5077644;27;45480;-73
2023/09/15 04:08:53;;;;;;;;;9.00;9.00;;;;;19.62;100.00;101386.66;5068902;28;47735;-73
2023/09/15 04:11:18;;;;;;;;;9.00;9.00;;;;;19.58;100.00;101384.91;5077694;28;45240;-73
2023/09/15 04:13:44;;;;;;;;;10.67;9.00;;;;;19.57;100.00;101389.38;5077392;27;46920;-72
2023/09/15 04:16:09;;;;;;;;;9.00;9.00;;;;;19.57;100.00;101385.84;5074650;28;61145;-73
2023/09/15 04:18:34;;;;;;;;;6.00;6.00;;;;;19.59;100.00;101381.34;5076506;28;67605;-73
2023/09/15 04:21:00;;;;;;;;;11.33;9.33;;;;;19.60;100.00;101386.72;5076631;27;53120;-73
2023/09/15 04:23:25;;;;;;;;;12.00;10.33;;;;;19.62;100.00;101387.56;5077954;28;45332;-73
2023/09/15 04:25:50;;;;;;;;;9.67;8.33;;;;;19.64;100.00;101382.16;5069008;27;45520;-73
2023/09/15 04:28:16;;;;;;;;;9.33;9.33;;;;;19.60;100.00;101370.63;5068396;28;46607;-73
2023/09/15 04:30:42;;;;;;;;;11.33;9.00;;;;;19.60;100.00;101372.41;5074199;28;64307;-72
2023/09/15 04:33:07;;;;;;;;;14.00;9.00;;;;;19.58;100.00;101371.53;5075480;28;45631;-73
2023/09/15 04:35:32;;;;;;;;;10.00;10.00;;;;;19.53;100.00;101362.69;5074248;28;45291;-73
2023/09/15 04:37:58;;;;;;;;;9.33;9.33;;;;;19.51;100.00;101359.16;5071355;28;46874;-74
2023/09/15 04:40:24;;;;;;;;;11.00;10.00;;;;;19.52;100.00;101358.25;5077501;27;45430;-74
2023/09/15 04:42:49;;;;;;;;;13.00;10.33;;;;;19.52;100.00;101358.25;5070856;28;55549;-73
2023/09/15 04:45:15;;;;;;;;;12.00;10.67;;;;;19.54;100.00;101349.25;5077277;28;45402;-75
2023/09/15 04:47:40;;;;;;;;;10.67;10.67;;;;;19.52;100.00;101343.03;5076540;28;45845;-73
2023/09/15 04:50:07;;;;;;;;;9.00;9.00;;;;;19.51;100.00;101354.69;5077538;28;45301;-73
2023/09/15 04:52:32;;;;;;;;;10.00;8.67;;;;;19.50;100.00;101349.34;5072541;27;45548;-74
2023/09/15 04:54:58;;;;;;;;;11.00;9.00;;;;;19.51;100.00;101354.69;5077490;28;45196;-73
2023/09/15 04:57:24;;;;;;;;;10.00;10.00;;;;;19.54;100.00;101353.72;5070644;27;46360;-72
2023/09/15 04:59:49;;;;;;;;;9.00;9.00;;;;;19.55;100.00;101350.16;5071867;27;45315;-72
2023/09/15 05:02:15;;;;;;;;;9.67;9.67;;;;;19.55;100.00;101342.13;5084339;27;45705;-72
2023/09/15 05:04:40;;;;;;;;;11.67;11.00;;;;;19.57;100.00;101348.31;5070760;27;45484;-73
2023/09/15 05:07:06;;;;;;;;;9.00;9.00;;;;;19.53;100.00;101346.59;5076345;28;47202;-74
2023/09/15 05:09:31;;;;;;;;;11.00;9.00;;;;;19.55;100.00;101343.00;5075675;27;45463;-72
2023/09/15 05:11:57;;;;;;;;;9.00;9.00;;;;;19.50;100.00;101350.25;5069190;28;45512;-72
2023/09/15 05:14:22;;;;;;;;;8.33;8.33;;;;;19.50;100.00;101352.03;5075850;27;57052;-72
2023/09/15 05:16:48;;;;;;;;;8.67;8.00;;;;;19.45;100.00;101352.09;5069375;28;46508;-72
2023/09/15 05:19:14;;;;;;;;;13.67;11.67;;;;;19.45;100.00;101361.94;5071750;27;45468;-72
2023/09/15 05:21:39;;;;;;;;;11.00;10.67;;;;;19.42;100.00;101368.22;5072946;27;45506;-72
2023/09/15 05:24:05;;;;;;;;;8.67;7.67;;;;;19.39;100.00;101362.94;5071488;28;45346;-72
2023/09/15 05:26:30;;;;;;;;;12.33;10.33;;;;;19.36;100.00;101363.84;5067656;28;46512;-73
2023/09/15 05:28:55;;;;;;;;;12.00;9.33;;;;;19.36;100.00;101371.00;5074595;27;45448;-72
2023/09/15 05:31:25;;;;;;;;;11.00;10.67;;;;;19.35;100.00;101367.44;5075888;28;45317;-73
2023/09/15 05:33:54;;;;;;;;;9.33;8.00;;;;;19.37;100.00;101364.72;5071430;28;45539;-72
2023/09/15 05:36:20;;;;;;;;;10.67;10.67;;;;;19.45;100.00;101364.63;5065820;28;46620;-72
2023/09/15 05:38:48;;;;;;;;;9.67;9.67;;;;;19.47;100.00;101373.50;5074021;27;68897;-72
2023/09/15 05:41:14;;;;;;;;;11.33;11.33;;;;;19.50;100.00;101360.06;5075057;27;45607;-72
2023/09/15 05:43:40;;;;;;;;;10.00;10.00;;;;;19.52;100.00;101367.16;5076527;27;45344;-73
2023/09/15 05:46:05;;;;;;;;;11.67;11.00;;;;;19.57;100.00;101361.72;5069030;28;46626;-72
2023/09/15 05:48:31;;;;;;;;;11.67;10.00;;;;;19.55;100.00;101364.44;5076549;28;45500;-72
2023/09/15 05:50:56;;;;;;;;;14.00;11.33;;;;;19.59;100.00;101362.59;5074427;27;64361;-72
2023/09/15 05:53:22;;;;;;;;;13.33;13.00;;;;;19.60;100.00;101362.59;5076279;27;45532;-72
2023/09/15 05:55:47;;;;;;;;;13.00;12.00;;;;;19.66;100.00;101356.25;5067691;28;65188;-72
2023/09/15 05:58:13;;;;;;;;;11.00;11.00;;;;;19.67;100.00;101352.66;5075288;27;61224;-72
2023/09/15 06:00:40;;;;;;;;;12.00;12.00;;;;;19.77;100.00;101359.59;5075965;27;45469;-72
2023/09/15 06:03:05;;;;;;;;;12.00;12.00;;;;;19.79;100.00;101356.88;5075733;28;46237;-72
2023/09/15 06:05:30;;;;;;;;;11.00;11.00;;;;;19.83;100.00;101355.94;5067030;27;45766;-72
2023/09/15 06:07:56;;;;;;;;;12.00;12.00;;;;;19.91;100.00;101353.97;5074218;27;46149;-73
2023/09/15 06:10:21;;;;;;;;;14.67;13.00;;;;;19.98;100.00;101352.94;5071496;28;61707;-73
2023/09/15 06:12:50;;;;;;;;;15.67;13.00;;;;;20.02;100.00;101356.44;5067432;28;65548;-74
2023/09/15 06:15:15;;;;;;;;;15.00;11.67;;;;;20.03;100.00;101359.09;5065632;27;46687;-72
2023/09/15 06:17:41;;;;;;;;;11.33;11.33;;;;;20.12;100.00;101363.38;5069416;28;68540;-72
2023/09/15 06:20:06;;;;;;;;;11.67;11.67;;;;;20.18;100.00;101360.56;5071945;28;65982;-72
2023/09/15 06:22:33;;;;;;;;;11.00;11.00;;;;;20.25;100.00;101366.72;5071610;28;45527;-72
2023/09/15 06:24:58;;;;;;;;;15.00;15.00;;;;;20.30;100.00;101371.06;5068635;27;46386;-72
2023/09/15 06:27:23;;;;;;;;;16.33;13.33;;;;;20.35;100.00;101361.13;5065170;27;51789;-72
2023/09/15 06:29:49;;;;;;;;;11.33;10.67;;;;;20.42;100.00;101364.56;5067359;27;45437;-72
2023/09/15 06:32:14;;;;;;;;;15.67;12.33;;;;;20.47;100.00;101359.13;5067669;28;45520;-72
2023/09/15 06:34:39;;;;;;;;;13.00;13.00;;;;;20.49;100.00;101359.97;5069086;28;46291;-74
2023/09/15 06:37:06;;;;;;;;;16.67;13.00;;;;;20.52;100.00;101355.44;5066902;27;60131;-72
2023/09/15 06:39:31;;;;;;;;;13.33;12.00;;;;;20.52;100.00;101365.28;5071288;27;45606;-73
2023/09/15 06:41:56;;;;;;;;;15.00;13.33;;;;;20.54;100.00;101352.72;5070157;28;45509;-73
2023/09/15 06:44:22;;;;;;;;;13.33;13.33;;;;;20.50;100.00;101356.38;5068613;28;68134;-72
2023/09/15 06:46:48;;;;;;;;;14.67;12.67;;;;;20.57;100.00;101358.03;5070518;27;45491;-74
2023/09/15 06:49:14;;;;;;;;;14.33;13.00;;;;;20.61;100.00;101357.00;5068456;27;64588;-75
2023/09/15 06:51:40;;;;;;;;;11.67;11.33;;;;;20.61;100.00;101357.00;5066803;27;45523;-74
2023/09/15 06:54:05;;;;;;;;;11.33;11.33;;;;;20.61;100.00;101357.94;5068517;28;71553;-74
2023/09/15 06:56:31;;;;;;;;;13.00;13.00;;;;;20.65;100.00;101362.28;5063546;27;45477;-73
2023/09/15 06:58:56;;;;;;;;;13.00;12.00;;;;;20.72;100.00;101370.19;5067106;27;66574;-74
2023/09/15 07:01:21;;;;;;;;;13.33;12.00;;;;;20.77;100.00;101363.81;5067943;27;63218;-74
2023/09/15 07:03:47;;;;;;;;;13.67;13.67;;;;;20.79;100.00;101366.47;5071873;27;69991;-73
2023/09/15 07:06:15;;;;;;;;;12.33;12.33;;;;;20.78;100.00;101362.91;5068872;27;45543;-73
2023/09/15 07:08:40;;;;;;;;;15.33;14.00;;;;;20.83;100.00;101371.75;5069368;27;45569;-72
2023/09/15 07:11:06;;;;;;;;;13.33;13.33;;;;;20.86;100.00;101366.28;5060331;28;46406;-74
2023/09/15 07:13:31;;;;;;;;;17.33;12.00;;;;;20.90;100.00;101362.63;5062324;28;70216;-73
2023/09/15 07:15:56;;;;;;;;;15.67;13.33;;;;;20.95;100.00;101361.63;5059623;28;61244;-73
2023/09/15 07:18:22;;;;;;;;;15.00;11.33;;;;;20.97;100.00;101357.09;5066975;27;64918;-75
2023/09/15 07:20:55;;;;;;;;;19.00;15.33;;;;;21.08;100.00;101347.00;5062824;27;63877;-73
2023/09/15 07:23:22;;;;;;;;;11.67;10.33;;;;;21.13;100.00;101339.72;5066209;28;45540;-74
2023/09/15 07:25:50;;;;;;;;;13.00;8.67;;;;;21.25;100.00;101338.50;5070349;27;46174;-74
2023/09/15 07:28:20;;;;;;;;;10.00;8.67;;;;;21.32;100.00;101333.00;5076549;28;45580;-73
2023/09/15 07:31:10;;;;;;;;;11.00;9.33;;;;;21.39;100.00;101328.34;5071056;27;45884;-74
2023/09/15 07:33:37;;;;;;;;;10.67;10.67;;;;;21.42;100.00;101331.84;5071788;27;46006;-72
2023/09/15 07:39:25;;;;;;;;;10.33;8.67;;;;;21.47;100.00;101334.41;5066639;27;45631;-74
2023/09/15 07:41:50;;;;;;;;;11.33;10.33;;;;;21.49;100.00;101319.13;5069661;27;64296;-73
2023/09/15 07:44:15;;;;;;;;;12.00;9.00;;;;;21.54;100.00;101321.69;5069319;28;70599;-73
2023/09/15 07:46:41;;;;;;;;;11.67;11.33;;;;;21.53;100.00;101323.50;5073223;27;45263;-73
2023/09/15 07:49:07;;;;;;;;;13.00;11.67;;;;;21.50;100.00;101328.06;5064723;27;61659;-73
2023/09/15 07:51:32;;;;;;;;;12.33;10.33;;;;;21.51;100.00;101330.69;5070255;27;45510;-73
2023/09/15 07:53:58;;;;;;;;;9.67;7.67;;;;;21.58;100.00;101318.88;5075356;28;45741;-72
2023/09/15 07:56:24;;;;;;;;;11.00;10.67;;;;;21.61;100.00;101310.72;5072902;27;66489;-73
2023/09/15 07:58:49;;;;;;;;;13.67;10.67;;;;;21.67;100.00;101306.97;5068064;28;45755;-74
2023/09/15 08:01:14;;;;;;;;;12.67;12.00;;;;;21.73;100.00;101308.63;5074123;28;45635;-72
2023/09/15 08:03:40;;;;;;;;;12.33;12.33;;;;;21.76;100.00;101303.16;5073297;28;72741;-73
2023/09/15 08:06:06;;;;;;;;;9.67;9.33;;;;;21.79;100.00;101305.78;5069954;28;68908;-74
2023/09/15 08:08:32;;;;;;;;;11.67;10.00;;;;;21.79;100.00;101300.41;5060971;27;45505;-73
2023/09/15 08:13:22;;;;;;;;;13.67;11.33;;;;;21.87;100.00;101296.56;5175224;22;75215;-72
2023/09/15 08:15:51;;;;;;;;;14.00;12.00;;;;;21.91;100.00;101300.06;5069090;28;68597;-72
2023/09/15 08:18:17;;;;;;;;;10.00;8.33;;;;;21.91;100.00;101297.38;5071259;27;45454;-72
2023/09/15 08:20:43;;;;;;;;;14.00;11.33;;;;;22.01;100.00;101298.88;5075483;28;45563;-73
2023/09/15 08:23:08;;;;;;;;;13.33;10.33;;;;;22.03;100.00;101290.75;5074629;27;72108;-72
2023/09/15 08:25:33;;;;;;;;;11.67;8.00;;;;;22.11;100.00;101286.06;5074436;27;69898;-71
2023/09/15 08:28:00;;;;;;;;;8.00;8.00;;;;;22.16;100.00;101282.31;5074034;28;59887;-76
2023/09/15 08:30:25;;;;;;;;;8.33;8.33;;;;;22.25;100.00;101285.66;5074940;28;45518;-72
2023/09/15 08:32:50;;;;;;;;;12.67;11.00;;;;;22.26;100.00;101284.72;5075055;27;66850;-73
2023/09/15 08:35:16;;;;;;;;;10.33;10.33;;;;;22.30;100.00;101273.81;5074597;27;69335;-72
2023/09/15 08:37:41;;;;;;;;;12.67;10.00;;;;;22.38;100.00;101278.97;5074638;27;64783;-72
2023/09/15 08:40:07;;;;;;;;;14.33;12.00;;;;;22.47;100.00;101284.06;5075558;27;45631;-72
2023/09/15 08:42:32;;;;;;;;;10.00;10.00;;;;;22.53;100.00;101291.06;5073751;28;46545;-73
2023/09/15 08:44:58;;;;;;;;;13.00;10.00;;;;;22.56;100.00;101289.16;5073008;28;66190;-74
2023/09/15 08:47:27;;;;;;;;;12.67;9.00;;;;;22.61;100.00;101287.22;5074213;28;45499;-72
2023/09/15 08:49:52;;;;;;;;;13.67;11.67;;;;;;;;5075032;28;45616;-73
2023/09/15 08:52:18;;;;;;;;;10.00;10.00;;;;;22.79;100.00;101274.97;5074325;27;45601;-73
2023/09/15 08:54:45;;;;;;;;;8.33;8.00;;;;;22.89;100.00;101287.22;5075422;27;53311;-73
2023/09/15 08:57:11;;;;;;;;;13.67;10.33;;;;;22.98;100.00;101289.63;5074060;28;45464;-72
2023/09/15 08:59:36;;;;;;;;;10.33;9.00;;;;;23.04;100.00;101287.66;5075703;27;46118;-73
2023/09/15 09:02:02;;;;;;;;;9.67;8.67;;;;;23.11;100.00;101282.00;5072918;28;46421;-72
2023/09/15 09:04:27;;;;;;;;;11.33;11.00;;;;;23.17;100.00;101280.91;5075649;27;45451;-72
2023/09/15 09:06:53;;;;;;;;;13.33;10.33;;;;;23.28;100.00;101276.06;5074175;27;45544;-72
2023/09/15 09:09:18;;;;;;;;;7.00;7.00;;;;;23.33;100.00;101279.47;5073601;28;45441;-73
2023/09/15 09:11:46;;;;;;;;;11.67;10.33;;;;;23.43;100.00;101277.31;5070270;28;64680;-72
2023/09/15 09:14:12;;;;;;;;;9.00;9.00;;;;;23.47;100.00;101269.06;5071060;28;69074;-72
2023/09/15 09:16:42;;;;;;;;;12.67;10.33;;;;;23.57;100.00;101258.84;5074400;27;45551;-72
2023/09/15 09:19:07;;;;;;;;;10.00;10.00;;;;;23.64;100.00;101265.78;5070475;28;45631;-72
2023/09/15 09:21:34;;;;;;;;;14.33;12.67;;;;;23.72;100.00;101260.16;5074888;27;46279;-73
2023/09/15 09:24:00;;;;;;;;;10.67;10.33;;;;;23.76;100.00;101259.97;5074722;27;45512;-72
2023/09/15 09:26:25;;;;;;;;;14.67;11.00;;;;;23.83;100.00;101248.97;5075623;28;45527;-73
2023/09/15 09:28:57;;;;;;;;;15.67;13.67;;;;;23.89;100.00;101248.72;5074868;27;45701;-72
2023/09/15 09:31:27;;;;;;;;;11.00;11.00;;;;;23.99;100.00;101242.03;5075714;27;47383;-72
2023/09/15 09:33:53;;;;;;;;;11.00;11.00;;;;;24.03;100.00;101247.25;5071754;27;45377;-75
2023/09/15 09:36:19;;;;;;;;;9.67;9.67;;;;;24.14;100.00;101248.69;5070484;28;45445;-73
2023/09/15 09:38:46;;;;;;;;;13.00;11.67;;;;;24.24;100.00;101252.78;5074323;27;45547;-74
2023/09/15 09:41:13;;;;;;;;;12.00;11.67;;;;;24.28;100.00;101241.78;5074566;27;45565;-73
2023/09/15 09:43:39;;;;;;;;;15.00;11.00;;;;;24.38;100.00;101246.84;5073837;28;45515;-72
2023/09/15 09:46:06;;;;;;;;;16.00;12.00;;;;;24.44;100.00;101244.78;5073273;27;45283;-73
2023/09/15 09:48:33;;;;;;;;;13.00;12.00;;;;;24.52;100.00;101239.09;5073668;27;45610;-72
2023/09/15 09:51:01;;;;;;;;;8.67;8.67;;;;;24.55;100.00;101238.94;5074346;28;46313;-72
2023/09/15 09:53:28;;;;;;;;;11.00;10.67;;;;;24.53;100.00;101235.44;5073876;27;45532;-72
2023/09/15 09:55:54;;;;;;;;;10.33;9.00;;;;;24.66;100.00;101242.13;5074607;28;45595;-72
2023/09/15 09:58:22;;;;;;;;;11.33;10.33;;;;;24.76;100.00;101246.16;5075295;27;45586;-72
2023/09/15 10:00:48;;;;;;;;;9.00;9.00;;;;;24.80;100.00;101242.41;5075671;27;47048;-74
2023/09/15 10:03:14;;;;;;;;;11.33;10.67;;;;;24.88;100.00;101244.81;5071503;27;45555;-74
2023/09/15 10:05:39;;;;;;;;;11.00;10.00;;;;;24.94;100.00;101232.84;5073273;27;63700;-73
2023/09/15 10:08:05;;;;;;;;;11.00;11.00;;;;;25.02;100.00;101233.41;5069104;27;45619;-73
2023/09/15 10:10:31;;;;;;;;;11.67;10.00;;;;;25.08;100.00;101235.88;5073486;28;46274;-74
2023/09/15 10:12:58;;;;;;;;;9.67;8.00;;;;;25.13;100.00;101227.56;5070180;28;45659;-73
2023/09/15 10:15:23;;;;;;;;;9.33;9.33;;;;;25.23;100.00;101231.63;5072470;28;45505;-72
2023/09/15 10:17:50;;;;;;;;;11.00;11.00;;;;;25.32;100.00;101229.41;5068865;27;45620;-72
2023/09/15 10:20:16;;;;;;;;;8.00;8.00;;;;;25.39;100.00;101227.31;5068830;28;46990;-73
2023/09/15 10:22:41;;;;;;;;;14.00;13.00;;;;;25.47;100.00;101216.16;5074573;27;45510;-71
2023/09/15 10:25:07;;;;;;;;;9.67;9.00;;;;;25.53;100.00;101211.34;5074345;27;65901;-72
2023/09/15 10:27:33;;;;;;;;;12.67;9.67;;;;;25.63;100.00;101211.81;5073976;28;45656;-72
2023/09/15 10:30:04;;;;;;;;;10.00;9.00;;;;;25.71;100.00;101203.34;5073152;28;71814;-73
2023/09/15 10:32:36;;;;;;;;;8.00;8.00;;;;;25.82;100.00;101201.03;5074684;27;45468;-72
2023/09/15 10:35:01;;;;;;;;;8.33;8.33;;;;;25.87;100.00;101196.28;5071800;27;45429;-72
2023/09/15 10:37:26;;;;;;;;;11.00;9.00;;;;;25.96;100.00;101190.47;5070872;27;59052;-73
2023/09/15 10:39:58;;;;;;;;;14.67;9.00;;;;;26.03;100.00;101185.63;5074325;27;46589;-72
2023/09/15 10:42:23;;;;;;;;;12.00;10.33;;;;;26.16;100.00;101177.81;5069117;27;45476;-73
2023/09/15 10:44:50;;;;;;;;;13.67;12.33;;;;;26.28;100.00;101179.91;5070814;28;65613;-72
2023/09/15 10:47:17;;;;;;;;;6.00;6.00;;;;;26.36;100.00;101173.16;5074485;28;45595;-72
2023/09/15 10:49:53;;;;;;;;;10.00;8.00;;;;;26.50;100.00;101171.63;5072431;27;47203;-75
2023/09/15 10:52:32;;;;;;;;;10.33;8.00;;;;;26.60;100.00;101176.53;5072450;27;45372;-73
2023/09/15 10:54:57;;;;;;;;;13.67;8.33;;;;;26.71;100.00;101162.44;5074212;28;45469;-72
2023/09/15 10:57:23;;;;;;;;;10.33;9.33;;;;;26.77;100.00;101158.53;5073210;27;62636;-72
2023/09/15 10:59:49;;;;;;;;;8.00;8.00;;;;;26.82;100.00;101148.31;5076494;27;70197;-72
2023/09/15 11:02:14;;;;;;;;;8.00;7.00;;;;;26.87;100.00;101155.25;5076887;28;46154;-71
2023/09/15 11:04:40;;;;;;;;;8.00;8.00;;;;;26.94;100.00;101144.97;5079435;27;45200;-71
2023/09/15 11:07:06;;;;;;;;;8.00;8.00;;;;;27.03;100.00;101149.03;5078323;27;45583;-71
2023/09/15 11:09:31;;;;;;;;;10.00;7.00;;;;;27.12;100.00;101140.47;5078306;27;45745;-72
2023/09/15 11:11:57;;;;;;;;;9.67;9.00;;;;;27.20;100.00;101138.22;5078721;27;51656;-72